sensor_id;sensor_type;location;lat;lon;timestamp;P1;durP1;ratioP1;P2;durP2;ratioP2
26612;SDS011;14248;57.652;11.908;2023-01-28T00:00:45;3.50;;;1.60;;
26612;SDS011;14248;57.652;11.908;2023-01-28T00:03:11;6.90;;;1.70;;
26612;SDS011;14248;57.652;11.908;2023-01-28T00:05:37;2.63;;;1.30;;
26612;SDS011;14248;57.652;11.908;2023-01-28T00:08:03;6.57;;;2.10;;
26612;SDS011;14248;57.652;11.908;2023-01-28T00:10:29;6.05;;;1.98;;
26612;SDS011;14248;57.652;11.908;2023-01-28T00:12:55;3.78;;;1.65;;
26612;SDS011;14248;57.652;11.908;2023-01-28T00:15:21;4.40;;;2.10;;
26612;SDS011;14248;57.652;11.908;2023-01-28T00:17:49;5.25;;;2.15;;
26612;SDS011;14248;57.652;11.908;2023-01-28T00:20:15;3.97;;;1.80;;
26612;SDS011;14248;57.652;11.908;2023-01-28T00:22:45;4.93;;;2.25;;
26612;SDS011;14248;57.652;11.908;2023-01-28T00:25:13;7.22;;;2.00;;
26612;SDS011;14248;57.652;11.908;2023-01-28T00:27:40;5.57;;;2.28;;
26612;SDS011;14248;57.652;11.908;2023-01-28T00:30:06;8.13;;;1.67;;
26612;SDS011;14248;57.652;11.908;2023-01-28T00:32:32;4.80;;;1.70;;
26612;SDS011;14248;57.652;11.908;2023-01-28T00:34:58;7.50;;;2.15;;
26612;SDS011;14248;57.652;11.908;2023-01-28T00:37:24;3.92;;;1.70;;
26612;SDS011;14248;57.652;11.908;2023-01-28T00:39:51;6.05;;;1.90;;
26612;SDS011;14248;57.652;11.908;2023-01-28T00:42:17;4.93;;;1.45;;
26612;SDS011;14248;57.652;11.908;2023-01-28T00:44:44;5.68;;;1.70;;
26612;SDS011;14248;57.652;11.908;2023-01-28T00:47:10;5.88;;;1.80;;
26612;SDS011;14248;57.652;11.908;2023-01-28T00:49:36;8.32;;;1.55;;
26612;SDS011;14248;57.652;11.908;2023-01-28T00:52:02;6.57;;;1.85;;
26612;SDS011;14248;57.652;11.908;2023-01-28T00:54:28;4.70;;;1.45;;
26612;SDS011;14248;57.652;11.908;2023-01-28T00:56:54;4.53;;;1.40;;
26612;SDS011;14248;57.652;11.908;2023-01-28T00:59:20;4.70;;;1.67;;
26612;SDS011;14248;57.652;11.908;2023-01-28T01:01:47;9.13;;;1.67;;
26612;SDS011;14248;57.652;11.908;2023-01-28T01:04:13;4.53;;;1.60;;
26612;SDS011;14248;57.652;11.908;2023-01-28T01:06:50;5.80;;;1.52;;
26612;SDS011;14248;57.652;11.908;2023-01-28T01:09:16;5.57;;;1.50;;
26612;SDS011;14248;57.652;11.908;2023-01-28T01:11:42;4.65;;;1.50;;
26612;SDS011;14248;57.652;11.908;2023-01-28T01:14:09;7.97;;;1.73;;
26612;SDS011;14248;57.652;11.908;2023-01-28T01:16:35;5.82;;;1.45;;
26612;SDS011;14248;57.652;11.908;2023-01-28T01:19:03;3.03;;;1.50;;
26612;SDS011;14248;57.652;11.908;2023-01-28T01:21:29;2.60;;;1.33;;
26612;SDS011;14248;57.652;11.908;2023-01-28T01:23:55;5.00;;;1.38;;
26612;SDS011;14248;57.652;11.908;2023-01-28T01:26:21;5.45;;;1.33;;
26612;SDS011;14248;57.652;11.908;2023-01-28T01:28:49;4.70;;;1.38;;
26612;SDS011;14248;57.652;11.908;2023-01-28T01:31:16;3.22;;;1.27;;
26612;SDS011;14248;57.652;11.908;2023-01-28T01:33:43;5.32;;;1.38;;
26612;SDS011;14248;57.652;11.908;2023-01-28T01:36:10;7.38;;;1.75;;
26612;SDS011;14248;57.652;11.908;2023-01-28T01:38:38;7.60;;;1.52;;
26612;SDS011;14248;57.652;11.908;2023-01-28T01:41:05;4.63;;;1.45;;
26612;SDS011;14248;57.652;11.908;2023-01-28T01:49:04;4.65;;;1.63;;
26612;SDS011;14248;57.652;11.908;2023-01-28T01:51:31;6.20;;;1.48;;
26612;SDS011;14248;57.652;11.908;2023-01-28T01:53:59;5.72;;;1.40;;
26612;SDS011;14248;57.652;11.908;2023-01-28T01:56:29;3.90;;;1.48;;
26612;SDS011;14248;57.652;11.908;2023-01-28T01:58:56;7.68;;;1.85;;
26612;SDS011;14248;57.652;11.908;2023-01-28T02:01:25;8.65;;;1.60;;
26612;SDS011;14248;57.652;11.908;2023-01-28T02:03:55;3.17;;;1.70;;
26612;SDS011;14248;57.652;11.908;2023-01-28T02:06:22;5.78;;;1.73;;
26612;SDS011;14248;57.652;11.908;2023-01-28T02:08:49;4.05;;;1.67;;
26612;SDS011;14248;57.652;11.908;2023-01-28T02:11:15;5.20;;;1.38;;
26612;SDS011;14248;57.652;11.908;2023-01-28T02:13:43;5.47;;;1.50;;
26612;SDS011;14248;57.652;11.908;2023-01-28T02:16:11;5.30;;;1.90;;
26612;SDS011;14248;57.652;11.908;2023-01-28T02:18:37;6.60;;;1.48;;
26612;SDS011;14248;57.652;11.908;2023-01-28T02:21:10;5.18;;;2.03;;
26612;SDS011;14248;57.652;11.908;2023-01-28T02:26:25;6.50;;;1.60;;
26612;SDS011;14248;57.652;11.908;2023-01-28T02:29:38;8.30;;;1.75;;
26612;SDS011;14248;57.652;11.908;2023-01-28T02:39:43;5.13;;;1.52;;
26612;SDS011;14248;57.652;11.908;2023-01-28T02:42:16;4.53;;;1.98;;
26612;SDS011;14248;57.652;11.908;2023-01-28T02:44:44;3.35;;;1.08;;
26612;SDS011;14248;57.652;11.908;2023-01-28T02:47:10;6.07;;;1.27;;
26612;SDS011;14248;57.652;11.908;2023-01-28T02:49:56;4.65;;;1.10;;
26612;SDS011;14248;57.652;11.908;2023-01-28T03:03:24;7.28;;;1.42;;
26612;SDS011;14248;57.652;11.908;2023-01-28T03:05:54;6.07;;;1.38;;
26612;SDS011;14248;57.652;11.908;2023-01-28T03:08:48;6.43;;;1.45;;
26612;SDS011;14248;57.652;11.908;2023-01-28T03:11:35;5.97;;;1.30;;
26612;SDS011;14248;57.652;11.908;2023-01-28T03:14:20;8.95;;;1.63;;
26612;SDS011;14248;57.652;11.908;2023-01-28T03:17:07;6.20;;;1.10;;
26612;SDS011;14248;57.652;11.908;2023-01-28T03:19:53;6.40;;;1.38;;
26612;SDS011;14248;57.652;11.908;2023-01-28T03:25:22;5.63;;;1.10;;
26612;SDS011;14248;57.652;11.908;2023-01-28T03:28:10;4.93;;;1.13;;
26612;SDS011;14248;57.652;11.908;2023-01-28T03:31:09;6.50;;;1.40;;
26612;SDS011;14248;57.652;11.908;2023-01-28T03:33:57;6.90;;;1.35;;
26612;SDS011;14248;57.652;11.908;2023-01-28T03:36:42;5.97;;;0.95;;
26612;SDS011;14248;57.652;11.908;2023-01-28T03:39:15;4.85;;;1.45;;
26612;SDS011;14248;57.652;11.908;2023-01-28T03:41:41;5.35;;;1.20;;
26612;SDS011;14248;57.652;11.908;2023-01-28T03:44:08;5.20;;;1.35;;
26612;SDS011;14248;57.652;11.908;2023-01-28T03:49:19;7.63;;;1.30;;
26612;SDS011;14248;57.652;11.908;2023-01-28T03:51:45;9.07;;;1.30;;
26612;SDS011;14248;57.652;11.908;2023-01-28T03:54:11;10.13;;;1.52;;
26612;SDS011;14248;57.652;11.908;2023-01-28T03:56:38;4.60;;;1.50;;
26612;SDS011;14248;57.652;11.908;2023-01-28T03:59:05;7.57;;;1.30;;
26612;SDS011;14248;57.652;11.908;2023-01-28T04:01:31;6.32;;;1.52;;
26612;SDS011;14248;57.652;11.908;2023-01-28T04:03:57;5.35;;;1.10;;
26612;SDS011;14248;57.652;11.908;2023-01-28T04:06:23;4.22;;;1.10;;
26612;SDS011;14248;57.652;11.908;2023-01-28T04:08:49;11.65;;;1.60;;
26612;SDS011;14248;57.652;11.908;2023-01-28T04:11:23;5.10;;;1.10;;
26612;SDS011;14248;57.652;11.908;2023-01-28T04:13:50;7.55;;;1.42;;
26612;SDS011;14248;57.652;11.908;2023-01-28T04:16:17;7.55;;;1.55;;
26612;SDS011;14248;57.652;11.908;2023-01-28T04:18:44;8.52;;;1.52;;
26612;SDS011;14248;57.652;11.908;2023-01-28T04:21:10;6.68;;;1.50;;
26612;SDS011;14248;57.652;11.908;2023-01-28T04:23:37;9.25;;;1.50;;
26612;SDS011;14248;57.652;11.908;2023-01-28T04:26:03;7.65;;;1.60;;
26612;SDS011;14248;57.652;11.908;2023-01-28T04:28:29;4.20;;;1.40;;
26612;SDS011;14248;57.652;11.908;2023-01-28T04:30:56;8.60;;;1.30;;
26612;SDS011;14248;57.652;11.908;2023-01-28T04:33:22;5.25;;;1.27;;
26612;SDS011;14248;57.652;11.908;2023-01-28T04:35:48;7.93;;;2.00;;
26612;SDS011;14248;57.652;11.908;2023-01-28T04:38:14;6.13;;;1.40;;
26612;SDS011;14248;57.652;11.908;2023-01-28T04:40:41;6.85;;;1.50;;
26612;SDS011;14248;57.652;11.908;2023-01-28T04:43:07;7.07;;;1.25;;
26612;SDS011;14248;57.652;11.908;2023-01-28T04:45:34;5.65;;;1.20;;
26612;SDS011;14248;57.652;11.908;2023-01-28T04:48:00;11.43;;;1.90;;
26612;SDS011;14248;57.652;11.908;2023-01-28T04:50:26;9.52;;;1.90;;
26612;SDS011;14248;57.652;11.908;2023-01-28T04:52:52;9.30;;;2.55;;
26612;SDS011;14248;57.652;11.908;2023-01-28T04:55:21;8.70;;;1.45;;
26612;SDS011;14248;57.652;11.908;2023-01-28T04:57:47;7.00;;;1.42;;
26612;SDS011;14248;57.652;11.908;2023-01-28T05:00:14;8.38;;;1.55;;
26612;SDS011;14248;57.652;11.908;2023-01-28T05:02:40;9.30;;;1.55;;
26612;SDS011;14248;57.652;11.908;2023-01-28T05:05:07;10.50;;;1.80;;
26612;SDS011;14248;57.652;11.908;2023-01-28T05:07:34;9.27;;;1.95;;
26612;SDS011;14248;57.652;11.908;2023-01-28T05:10:01;6.32;;;1.38;;
26612;SDS011;14248;57.652;11.908;2023-01-28T05:12:28;6.63;;;1.63;;
26612;SDS011;14248;57.652;11.908;2023-01-28T05:14:57;9.20;;;1.50;;
26612;SDS011;14248;57.652;11.908;2023-01-28T05:17:25;4.72;;;1.25;;
26612;SDS011;14248;57.652;11.908;2023-01-28T05:19:51;6.40;;;1.35;;
26612;SDS011;14248;57.652;11.908;2023-01-28T05:22:17;11.20;;;1.85;;
26612;SDS011;14248;57.652;11.908;2023-01-28T05:24:43;11.13;;;1.60;;
26612;SDS011;14248;57.652;11.908;2023-01-28T05:27:09;10.98;;;1.63;;
26612;SDS011;14248;57.652;11.908;2023-01-28T05:29:35;8.63;;;1.48;;
26612;SDS011;14248;57.652;11.908;2023-01-28T05:32:01;6.03;;;1.30;;
26612;SDS011;14248;57.652;11.908;2023-01-28T05:34:27;5.50;;;1.40;;
26612;SDS011;14248;57.652;11.908;2023-01-28T05:36:53;6.10;;;1.48;;
26612;SDS011;14248;57.652;11.908;2023-01-28T05:39:20;7.60;;;1.30;;
26612;SDS011;14248;57.652;11.908;2023-01-28T05:41:47;9.40;;;1.50;;
26612;SDS011;14248;57.652;11.908;2023-01-28T05:44:13;7.15;;;1.40;;
26612;SDS011;14248;57.652;11.908;2023-01-28T05:46:39;7.18;;;1.50;;
26612;SDS011;14248;57.652;11.908;2023-01-28T05:49:09;8.38;;;1.65;;
26612;SDS011;14248;57.652;11.908;2023-01-28T05:51:38;7.55;;;1.98;;
26612;SDS011;14248;57.652;11.908;2023-01-28T05:54:04;6.22;;;1.20;;
26612;SDS011;14248;57.652;11.908;2023-01-28T05:56:31;14.50;;;4.32;;
26612;SDS011;14248;57.652;11.908;2023-01-28T05:58:58;5.20;;;1.63;;
26612;SDS011;14248;57.652;11.908;2023-01-28T06:01:25;16.27;;;2.33;;
26612;SDS011;14248;57.652;11.908;2023-01-28T06:03:51;10.18;;;1.95;;
26612;SDS011;14248;57.652;11.908;2023-01-28T06:06:17;10.13;;;1.80;;
26612;SDS011;14248;57.652;11.908;2023-01-28T06:08:43;8.15;;;1.38;;
26612;SDS011;14248;57.652;11.908;2023-01-28T06:11:10;6.88;;;1.67;;
26612;SDS011;14248;57.652;11.908;2023-01-28T06:13:37;9.27;;;1.80;;
26612;SDS011;14248;57.652;11.908;2023-01-28T06:16:05;8.52;;;1.98;;
26612;SDS011;14248;57.652;11.908;2023-01-28T06:18:33;5.50;;;1.90;;
26612;SDS011;14248;57.652;11.908;2023-01-28T06:20:59;12.73;;;1.88;;
26612;SDS011;14248;57.652;11.908;2023-01-28T06:23:25;9.68;;;2.05;;
26612;SDS011;14248;57.652;11.908;2023-01-28T06:25:52;10.05;;;1.85;;
26612;SDS011;14248;57.652;11.908;2023-01-28T06:28:19;6.68;;;1.75;;
26612;SDS011;14248;57.652;11.908;2023-01-28T06:30:47;11.27;;;2.20;;
26612;SDS011;14248;57.652;11.908;2023-01-28T06:33:13;8.55;;;1.85;;
26612;SDS011;14248;57.652;11.908;2023-01-28T06:35:39;11.10;;;2.65;;
26612;SDS011;14248;57.652;11.908;2023-01-28T06:38:07;8.57;;;1.98;;
26612;SDS011;14248;57.652;11.908;2023-01-28T06:40:34;9.75;;;2.15;;
26612;SDS011;14248;57.652;11.908;2023-01-28T06:43:01;17.60;;;2.60;;
26612;SDS011;14248;57.652;11.908;2023-01-28T06:45:28;9.70;;;2.20;;
26612;SDS011;14248;57.652;11.908;2023-01-28T06:47:54;9.43;;;2.20;;
26612;SDS011;14248;57.652;11.908;2023-01-28T06:50:20;8.32;;;2.05;;
26612;SDS011;14248;57.652;11.908;2023-01-28T06:52:46;8.77;;;1.98;;
26612;SDS011;14248;57.652;11.908;2023-01-28T06:55:13;11.30;;;2.47;;
26612;SDS011;14248;57.652;11.908;2023-01-28T06:57:40;10.30;;;2.03;;
26612;SDS011;14248;57.652;11.908;2023-01-28T07:00:07;17.52;;;2.95;;
26612;SDS011;14248;57.652;11.908;2023-01-28T07:02:35;9.32;;;2.20;;
26612;SDS011;14248;57.652;11.908;2023-01-28T07:05:01;7.85;;;2.22;;
26612;SDS011;14248;57.652;11.908;2023-01-28T07:07:28;15.18;;;2.38;;
26612;SDS011;14248;57.652;11.908;2023-01-28T07:09:54;7.50;;;2.08;;
26612;SDS011;14248;57.652;11.908;2023-01-28T07:12:20;11.23;;;2.08;;
26612;SDS011;14248;57.652;11.908;2023-01-28T07:14:46;9.98;;;2.53;;
26612;SDS011;14248;57.652;11.908;2023-01-28T07:17:14;10.57;;;2.22;;
26612;SDS011;14248;57.652;11.908;2023-01-28T07:19:40;12.00;;;2.28;;
26612;SDS011;14248;57.652;11.908;2023-01-28T07:22:06;10.80;;;2.45;;
26612;SDS011;14248;57.652;11.908;2023-01-28T07:24:32;11.30;;;2.20;;
26612;SDS011;14248;57.652;11.908;2023-01-28T07:26:59;11.02;;;2.38;;
26612;SDS011;14248;57.652;11.908;2023-01-28T07:29:25;10.73;;;2.97;;
26612;SDS011;14248;57.652;11.908;2023-01-28T07:31:51;9.80;;;2.40;;
26612;SDS011;14248;57.652;11.908;2023-01-28T07:34:17;14.20;;;3.28;;
26612;SDS011;14248;57.652;11.908;2023-01-28T07:36:44;11.10;;;2.47;;
26612;SDS011;14248;57.652;11.908;2023-01-28T07:39:10;8.75;;;2.00;;
26612;SDS011;14248;57.652;11.908;2023-01-28T07:41:37;11.07;;;2.25;;
26612;SDS011;14248;57.652;11.908;2023-01-28T07:44:03;16.33;;;2.50;;
26612;SDS011;14248;57.652;11.908;2023-01-28T07:46:29;12.90;;;2.53;;
26612;SDS011;14248;57.652;11.908;2023-01-28T07:48:55;9.48;;;2.45;;
26612;SDS011;14248;57.652;11.908;2023-01-28T07:51:21;9.60;;;2.33;;
26612;SDS011;14248;57.652;11.908;2023-01-28T07:53:47;14.15;;;2.03;;
26612;SDS011;14248;57.652;11.908;2023-01-28T07:56:13;9.15;;;2.10;;
26612;SDS011;14248;57.652;11.908;2023-01-28T07:58:39;15.60;;;2.33;;
26612;SDS011;14248;57.652;11.908;2023-01-28T08:01:06;10.90;;;2.10;;
26612;SDS011;14248;57.652;11.908;2023-01-28T08:03:32;8.77;;;2.08;;
26612;SDS011;14248;57.652;11.908;2023-01-28T08:05:59;8.00;;;2.35;;
26612;SDS011;14248;57.652;11.908;2023-01-28T08:08:25;8.80;;;2.08;;
26612;SDS011;14248;57.652;11.908;2023-01-28T08:10:51;10.57;;;2.03;;
26612;SDS011;14248;57.652;11.908;2023-01-28T08:13:18;12.30;;;2.05;;
26612;SDS011;14248;57.652;11.908;2023-01-28T08:15:44;8.38;;;1.75;;
26612;SDS011;14248;57.652;11.908;2023-01-28T08:18:11;10.27;;;1.80;;
26612;SDS011;14248;57.652;11.908;2023-01-28T08:20:39;5.35;;;1.42;;
26612;SDS011;14248;57.652;11.908;2023-01-28T08:23:08;6.80;;;1.52;;
26612;SDS011;14248;57.652;11.908;2023-01-28T08:25:36;12.10;;;1.70;;
26612;SDS011;14248;57.652;11.908;2023-01-28T08:28:02;15.23;;;2.25;;
26612;SDS011;14248;57.652;11.908;2023-01-28T08:30:29;9.80;;;1.80;;
26612;SDS011;14248;57.652;11.908;2023-01-28T08:32:58;8.93;;;1.80;;
26612;SDS011;14248;57.652;11.908;2023-01-28T08:35:26;9.80;;;2.22;;
26612;SDS011;14248;57.652;11.908;2023-01-28T08:37:52;11.95;;;2.03;;
26612;SDS011;14248;57.652;11.908;2023-01-28T08:40:19;8.55;;;2.28;;
26612;SDS011;14248;57.652;11.908;2023-01-28T08:42:46;12.50;;;1.92;;
26612;SDS011;14248;57.652;11.908;2023-01-28T08:45:13;7.28;;;1.75;;
26612;SDS011;14248;57.652;11.908;2023-01-28T08:50:14;6.88;;;1.50;;
26612;SDS011;14248;57.652;11.908;2023-01-28T08:52:41;7.60;;;1.30;;
26612;SDS011;14248;57.652;11.908;2023-01-28T08:55:08;8.75;;;1.30;;
26612;SDS011;14248;57.652;11.908;2023-01-28T08:57:35;11.30;;;1.30;;
26612;SDS011;14248;57.652;11.908;2023-01-28T09:00:01;10.40;;;2.05;;
26612;SDS011;14248;57.652;11.908;2023-01-28T09:02:27;12.18;;;2.58;;
26612;SDS011;14248;57.652;11.908;2023-01-28T09:04:53;12.25;;;1.70;;
26612;SDS011;14248;57.652;11.908;2023-01-28T09:07:19;8.07;;;1.75;;
26612;SDS011;14248;57.652;11.908;2023-01-28T09:09:46;6.97;;;1.73;;
26612;SDS011;14248;57.652;11.908;2023-01-28T09:12:12;8.60;;;1.92;;
26612;SDS011;14248;57.652;11.908;2023-01-28T09:14:38;7.93;;;1.75;;
26612;SDS011;14248;57.652;11.908;2023-01-28T09:17:05;9.45;;;1.98;;
26612;SDS011;14248;57.652;11.908;2023-01-28T09:19:32;11.88;;;2.38;;
26612;SDS011;14248;57.652;11.908;2023-01-28T09:21:58;11.75;;;2.65;;
26612;SDS011;14248;57.652;11.908;2023-01-28T09:24:24;8.57;;;1.63;;
26612;SDS011;14248;57.652;11.908;2023-01-28T09:26:50;10.70;;;1.98;;
26612;SDS011;14248;57.652;11.908;2023-01-28T09:29:16;8.40;;;1.77;;
26612;SDS011;14248;57.652;11.908;2023-01-28T09:31:42;11.18;;;2.08;;
26612;SDS011;14248;57.652;11.908;2023-01-28T09:34:08;7.72;;;1.70;;
26612;SDS011;14248;57.652;11.908;2023-01-28T09:36:35;8.50;;;2.03;;
26612;SDS011;14248;57.652;11.908;2023-01-28T09:39:01;6.60;;;1.30;;
26612;SDS011;14248;57.652;11.908;2023-01-28T09:41:28;7.18;;;1.60;;
26612;SDS011;14248;57.652;11.908;2023-01-28T09:46:27;6.15;;;1.70;;
26612;SDS011;14248;57.652;11.908;2023-01-28T09:48:55;7.07;;;1.50;;
26612;SDS011;14248;57.652;11.908;2023-01-28T09:53:59;6.95;;;1.40;;
26612;SDS011;14248;57.652;11.908;2023-01-28T09:56:31;8.07;;;1.67;;
26612;SDS011;14248;57.652;11.908;2023-01-28T09:59:04;6.65;;;1.70;;
26612;SDS011;14248;57.652;11.908;2023-01-28T10:09:53;5.28;;;1.58;;
26612;SDS011;14248;57.652;11.908;2023-01-28T10:17:49;9.60;;;1.67;;
26612;SDS011;14248;57.652;11.908;2023-01-28T10:25:15;14.80;;;1.40;;
26612;SDS011;14248;57.652;11.908;2023-01-28T10:27:42;7.30;;;1.60;;
26612;SDS011;14248;57.652;11.908;2023-01-28T10:30:20;8.93;;;1.83;;
26612;SDS011;14248;57.652;11.908;2023-01-28T10:35:16;11.68;;;2.38;;
26612;SDS011;14248;57.652;11.908;2023-01-28T10:37:42;13.20;;;1.98;;
26612;SDS011;14248;57.652;11.908;2023-01-28T10:40:18;9.18;;;1.83;;
26612;SDS011;14248;57.652;11.908;2023-01-28T10:42:45;11.43;;;1.90;;
26612;SDS011;14248;57.652;11.908;2023-01-28T10:45:19;9.40;;;1.52;;
26612;SDS011;14248;57.652;11.908;2023-01-28T10:47:55;9.02;;;1.80;;
26612;SDS011;14248;57.652;11.908;2023-01-28T10:50:25;9.80;;;1.60;;
26612;SDS011;14248;57.652;11.908;2023-01-28T10:52:53;15.63;;;2.47;;
26612;SDS011;14248;57.652;11.908;2023-01-28T10:55:19;8.63;;;2.00;;
26612;SDS011;14248;57.652;11.908;2023-01-28T10:57:46;15.07;;;2.10;;
26612;SDS011;14248;57.652;11.908;2023-01-28T11:02:46;13.38;;;2.20;;
26612;SDS011;14248;57.652;11.908;2023-01-28T11:05:23;6.45;;;1.60;;
26612;SDS011;14248;57.652;11.908;2023-01-28T11:08:01;17.13;;;2.10;;
26612;SDS011;14248;57.652;11.908;2023-01-28T11:10:34;11.88;;;2.30;;
26612;SDS011;14248;57.652;11.908;2023-01-28T11:13:02;13.33;;;2.43;;
26612;SDS011;14248;57.652;11.908;2023-01-28T11:15:29;12.07;;;2.40;;
26612;SDS011;14248;57.652;11.908;2023-01-28T11:17:59;9.32;;;2.17;;
26612;SDS011;14248;57.652;11.908;2023-01-28T11:20:27;11.48;;;2.50;;
26612;SDS011;14248;57.652;11.908;2023-01-28T11:22:55;14.65;;;2.25;;
26612;SDS011;14248;57.652;11.908;2023-01-28T11:27:51;10.30;;;2.80;;
26612;SDS011;14248;57.652;11.908;2023-01-28T11:32:53;11.63;;;1.98;;
26612;SDS011;14248;57.652;11.908;2023-01-28T11:35:24;12.95;;;2.20;;
26612;SDS011;14248;57.652;11.908;2023-01-28T11:37:52;16.55;;;2.45;;
26612;SDS011;14248;57.652;11.908;2023-01-28T11:40:18;13.15;;;2.10;;
26612;SDS011;14248;57.652;11.908;2023-01-28T11:42:45;14.88;;;2.47;;
26612;SDS011;14248;57.652;11.908;2023-01-28T11:45:16;16.13;;;2.83;;
26612;SDS011;14248;57.652;11.908;2023-01-28T11:47:55;19.15;;;2.67;;
26612;SDS011;14248;57.652;11.908;2023-01-28T11:50:34;13.77;;;3.05;;
26612;SDS011;14248;57.652;11.908;2023-01-28T12:00:32;11.88;;;2.40;;
26612;SDS011;14248;57.652;11.908;2023-01-28T12:05:55;21.83;;;3.13;;
26612;SDS011;14248;57.652;11.908;2023-01-28T12:08:28;9.73;;;2.67;;
26612;SDS011;14248;57.652;11.908;2023-01-28T12:23:56;17.85;;;2.55;;
26612;SDS011;14248;57.652;11.908;2023-01-28T12:26:34;16.80;;;3.00;;
26612;SDS011;14248;57.652;11.908;2023-01-28T12:31:37;14.93;;;2.15;;
26612;SDS011;14248;57.652;11.908;2023-01-28T12:36:56;12.32;;;2.25;;
26612;SDS011;14248;57.652;11.908;2023-01-28T12:44:37;13.07;;;2.00;;
26612;SDS011;14248;57.652;11.908;2023-01-28T12:47:08;12.25;;;2.60;;
26612;SDS011;14248;57.652;11.908;2023-01-28T12:49:39;16.88;;;2.30;;
26612;SDS011;14248;57.652;11.908;2023-01-28T12:52:17;13.20;;;2.13;;
26612;SDS011;14248;57.652;11.908;2023-01-28T12:57:28;12.40;;;2.30;;
26612;SDS011;14248;57.652;11.908;2023-01-28T13:00:06;14.45;;;2.92;;
26612;SDS011;14248;57.652;11.908;2023-01-28T13:02:41;16.40;;;3.00;;
26612;SDS011;14248;57.652;11.908;2023-01-28T13:05:14;14.75;;;2.90;;
26612;SDS011;14248;57.652;11.908;2023-01-28T13:12:45;15.85;;;2.45;;
26612;SDS011;14248;57.652;11.908;2023-01-28T13:15:12;12.27;;;2.03;;
26612;SDS011;14248;57.652;11.908;2023-01-28T13:17:52;13.18;;;2.75;;
26612;SDS011;14248;57.652;11.908;2023-01-28T13:23:03;12.88;;;2.25;;
26612;SDS011;14248;57.652;11.908;2023-01-28T13:25:32;14.85;;;2.60;;
26612;SDS011;14248;57.652;11.908;2023-01-28T13:28:00;12.63;;;2.72;;
26612;SDS011;14248;57.652;11.908;2023-01-28T13:30:30;11.25;;;2.40;;
26612;SDS011;14248;57.652;11.908;2023-01-28T13:33:03;11.13;;;2.33;;
26612;SDS011;14248;57.652;11.908;2023-01-28T13:35:34;9.77;;;2.67;;
26612;SDS011;14248;57.652;11.908;2023-01-28T13:38:15;13.50;;;2.60;;
26612;SDS011;14248;57.652;11.908;2023-01-28T13:40:42;12.20;;;2.35;;
26612;SDS011;14248;57.652;11.908;2023-01-28T13:50:48;17.98;;;2.60;;
26612;SDS011;14248;57.652;11.908;2023-01-28T13:55:47;13.95;;;2.05;;
26612;SDS011;14248;57.652;11.908;2023-01-28T14:01:05;13.82;;;2.80;;
26612;SDS011;14248;57.652;11.908;2023-01-28T14:16:40;27.15;;;4.35;;
26612;SDS011;14248;57.652;11.908;2023-01-28T14:19:12;21.02;;;3.35;;
26612;SDS011;14248;57.652;11.908;2023-01-28T14:21:39;23.55;;;3.38;;
26612;SDS011;14248;57.652;11.908;2023-01-28T14:24:05;14.63;;;3.00;;
26612;SDS011;14248;57.652;11.908;2023-01-28T14:31:41;22.08;;;3.38;;
26612;SDS011;14248;57.652;11.908;2023-01-28T14:36:40;24.25;;;3.92;;
26612;SDS011;14248;57.652;11.908;2023-01-28T14:39:14;28.90;;;3.88;;
26612;SDS011;14248;57.652;11.908;2023-01-28T14:41:43;15.67;;;3.00;;
26612;SDS011;14248;57.652;11.908;2023-01-28T14:44:14;21.17;;;3.78;;
26612;SDS011;14248;57.652;11.908;2023-01-28T14:46:48;25.13;;;3.78;;
26612;SDS011;14248;57.652;11.908;2023-01-28T14:49:29;17.85;;;2.65;;
26612;SDS011;14248;57.652;11.908;2023-01-28T14:59:30;14.80;;;2.67;;
26612;SDS011;14248;57.652;11.908;2023-01-28T15:01:59;22.80;;;3.17;;
26612;SDS011;14248;57.652;11.908;2023-01-28T15:04:27;16.70;;;2.90;;
26612;SDS011;14248;57.652;11.908;2023-01-28T15:06:54;22.83;;;3.40;;
26612;SDS011;14248;57.652;11.908;2023-01-28T15:09:20;23.92;;;2.90;;
26612;SDS011;14248;57.652;11.908;2023-01-28T15:11:48;18.08;;;3.13;;
26612;SDS011;14248;57.652;11.908;2023-01-28T15:14:18;23.20;;;3.17;;
26612;SDS011;14248;57.652;11.908;2023-01-28T15:16:46;24.58;;;3.20;;
26612;SDS011;14248;57.652;11.908;2023-01-28T15:19:13;22.73;;;3.45;;
26612;SDS011;14248;57.652;11.908;2023-01-28T15:21:40;19.73;;;2.85;;
26612;SDS011;14248;57.652;11.908;2023-01-28T15:24:09;22.45;;;3.08;;
26612;SDS011;14248;57.652;11.908;2023-01-28T15:26:37;30.90;;;3.58;;
26612;SDS011;14248;57.652;11.908;2023-01-28T15:29:03;23.40;;;3.35;;
26612;SDS011;14248;57.652;11.908;2023-01-28T15:31:30;24.60;;;3.28;;
26612;SDS011;14248;57.652;11.908;2023-01-28T15:36:26;23.52;;;4.32;;
26612;SDS011;14248;57.652;11.908;2023-01-28T15:38:52;17.85;;;3.35;;
26612;SDS011;14248;57.652;11.908;2023-01-28T15:41:20;27.55;;;3.33;;
26612;SDS011;14248;57.652;11.908;2023-01-28T15:43:48;24.13;;;3.63;;
26612;SDS011;14248;57.652;11.908;2023-01-28T15:46:15;16.55;;;2.85;;
26612;SDS011;14248;57.652;11.908;2023-01-28T15:48:42;22.25;;;4.68;;
26612;SDS011;14248;57.652;11.908;2023-01-28T15:51:25;18.90;;;3.30;;
26612;SDS011;14248;57.652;11.908;2023-01-28T15:53:55;20.48;;;3.03;;
26612;SDS011;14248;57.652;11.908;2023-01-28T15:56:26;21.13;;;3.47;;
26612;SDS011;14248;57.652;11.908;2023-01-28T15:58:53;17.42;;;2.70;;
26612;SDS011;14248;57.652;11.908;2023-01-28T16:01:20;17.55;;;2.80;;
26612;SDS011;14248;57.652;11.908;2023-01-28T16:03:58;22.42;;;3.72;;
26612;SDS011;14248;57.652;11.908;2023-01-28T16:06:28;13.65;;;2.92;;
26612;SDS011;14248;57.652;11.908;2023-01-28T16:08:56;18.30;;;3.70;;
26612;SDS011;14248;57.652;11.908;2023-01-28T16:11:26;20.92;;;3.35;;
26612;SDS011;14248;57.652;11.908;2023-01-28T16:13:53;23.85;;;3.83;;
26612;SDS011;14248;57.652;11.908;2023-01-28T16:16:24;30.73;;;4.28;;
26612;SDS011;14248;57.652;11.908;2023-01-28T16:18:52;17.70;;;2.78;;
26612;SDS011;14248;57.652;11.908;2023-01-28T16:21:30;24.40;;;3.67;;
26612;SDS011;14248;57.652;11.908;2023-01-28T16:26:25;21.58;;;2.40;;
26612;SDS011;14248;57.652;11.908;2023-01-28T16:28:51;22.80;;;3.33;;
26612;SDS011;14248;57.652;11.908;2023-01-28T16:31:17;22.20;;;3.28;;
26612;SDS011;14248;57.652;11.908;2023-01-28T16:33:44;23.52;;;3.47;;
26612;SDS011;14248;57.652;11.908;2023-01-28T16:36:11;19.80;;;3.10;;
26612;SDS011;14248;57.652;11.908;2023-01-28T16:38:38;19.80;;;3.00;;
26612;SDS011;14248;57.652;11.908;2023-01-28T16:41:10;23.00;;;2.95;;
26612;SDS011;14248;57.652;11.908;2023-01-28T16:43:36;19.75;;;3.47;;
26612;SDS011;14248;57.652;11.908;2023-01-28T16:46:03;23.83;;;3.65;;
26612;SDS011;14248;57.652;11.908;2023-01-28T16:48:29;16.52;;;3.28;;
26612;SDS011;14248;57.652;11.908;2023-01-28T16:50:55;29.85;;;4.63;;
26612;SDS011;14248;57.652;11.908;2023-01-28T16:53:26;21.73;;;4.10;;
26612;SDS011;14248;57.652;11.908;2023-01-28T16:55:53;24.98;;;4.03;;
26612;SDS011;14248;57.652;11.908;2023-01-28T16:58:21;16.02;;;3.00;;
26612;SDS011;14248;57.652;11.908;2023-01-28T17:00:48;17.10;;;2.97;;
26612;SDS011;14248;57.652;11.908;2023-01-28T17:03:14;14.85;;;2.83;;
26612;SDS011;14248;57.652;11.908;2023-01-28T17:05:40;14.38;;;2.70;;
26612;SDS011;14248;57.652;11.908;2023-01-28T17:08:06;12.90;;;2.25;;
26612;SDS011;14248;57.652;11.908;2023-01-28T17:10:32;15.00;;;2.90;;
26612;SDS011;14248;57.652;11.908;2023-01-28T17:12:59;14.30;;;3.38;;
26612;SDS011;14248;57.652;11.908;2023-01-28T17:15:25;20.08;;;3.30;;